Time;durP1;ratioP1;P1;durP2;ratioP2;P2;SDS_P1;SDS_P2;PMS_P1;PMS_P2;Temp;Humidity;BMP_temperature;BMP_pressure;BME280_temperature;BME280_humidity;BME280_pressure;Samples;Min_cycle;Max_cycle;Signal;HPM_P1;HPM_P2
2023/09/30 00:01:03;;;;;;;17.75;14.35;;;;;;;12.81;99.43;102368.94;5095131;28;20039;-62
2023/09/30 00:03:28;;;;;;;15.13;13.05;;;;;;;12.79;100.00;102373.47;5105589;28;20028;-62
2023/09/30 00:05:56;;;;;;;16.50;14.70;;;;;;;12.79;100.00;102361.94;5112041;28;20039;-63
2023/09/30 00:08:22;;;;;;;19.30;14.13;;;;;;;12.69;100.00;102364.19;5106308;28;20028;-62
2023/09/30 00:10:47;;;;;;;18.65;14.43;;;;;;;12.81;100.00;102365.41;5096484;28;20028;-62
2023/09/30 00:13:13;;;;;;;15.45;12.93;;;;;;;12.83;100.00;102369.75;5102207;28;20096;-62
2023/09/30 00:15:39;;;;;;;16.92;14.60;;;;;;;12.84;100.00;102371.47;5112071;28;20023;-62
2023/09/30 00:18:05;;;;;;;17.35;14.55;;;;;;;12.83;100.00;102372.41;5104656;27;20028;-62
2023/09/30 00:20:30;;;;;;;19.05;14.35;;;;;;;12.82;100.00;102373.31;5110811;28;20053;-62
2023/09/30 00:22:56;;;;;;;17.85;14.10;;;;;;;12.89;100.00;102384.59;5105234;28;20371;-62
2023/09/30 00:25:21;;;;;;;15.35;13.85;;;;;;;12.81;100.00;102373.41;5095067;28;20047;-63
2023/09/30 00:27:48;;;;;;;20.45;13.55;;;;;;;12.87;100.00;102375.78;5110642;28;20030;-63
2023/09/30 00:30:13;;;;;;;17.33;14.18;;;;;;;12.86;100.00;102366.06;5081753;28;20474;-63
2023/09/30 00:32:39;;;;;;;15.68;14.07;;;;;;;12.89;100.00;102357.91;5101158;28;20052;-63
2023/09/30 00:35:10;;;;;;;19.40;15.77;;;;;;;12.87;100.00;102365.09;5110285;28;20077;-63
2023/09/30 00:37:39;;;;;;;17.48;14.15;;;;;;;12.87;100.00;102384.66;5091503;28;20074;-63
2023/09/30 00:40:06;;;;;;;17.00;14.40;;;;;;;12.87;100.00;102394.47;5100984;28;20028;-62
2023/09/30 00:42:31;;;;;;;15.90;14.20;;;;;;;12.91;100.00;102398.72;5099730;28;20020;-63
2023/09/30 00:44:57;;;;;;;15.98;13.82;;;;;;;12.95;100.00;102394.97;5095896;28;20024;-63
2023/09/30 00:47:23;;;;;;;17.15;13.98;;;;;;;12.84;100.00;102381.28;5101974;28;20023;-62
2023/09/30 00:49:53;;;;;;;15.57;13.75;;;;;;;12.87;100.00;102386.47;5104984;28;20020;-62
2023/09/30 00:52:19;;;;;;;;;;;;;;;13.06;100.00;102373.97;5111562;28;20438;-63
2023/09/30 00:54:48;;;;;;;17.80;14.98;;;;;;;12.87;100.00;102373.13;5096064;28;20044;-62
2023/09/30 00:57:14;;;;;;;11.60;6.90;;;;;;;13.02;100.00;102385.72;5098564;28;20031;-63
2023/09/30 00:59:40;;;;;;;15.40;13.80;;;;;;;12.81;100.00;102374.28;5099615;28;20031;-63
2023/09/30 01:02:06;;;;;;;16.95;13.98;;;;;;;12.90;100.00;102394.34;5093271;28;20479;-62
2023/09/30 01:04:32;;;;;;;17.55;15.65;;;;;;;12.88;100.00;102389.09;5102181;28;20042;-62
2023/09/30 01:06:59;;;;;;;15.18;13.60;;;;;;;12.74;100.00;102388.88;5110132;28;20031;-62
2023/09/30 01:09:25;;;;;;;12.88;6.50;;;;;;;12.98;100.00;102394.84;5092539;28;20103;-63
2023/09/30 01:11:51;;;;;;;16.20;14.35;;;;;;;12.79;100.00;102392.16;5095123;28;20555;-63
2023/09/30 01:14:31;;;;;;;15.50;13.98;;;;;;;12.81;100.00;102398.31;5094709;28;20035;-63
2023/09/30 01:16:57;;;;;;;19.58;15.77;;;;;;;12.71;100.00;102397.03;5090706;28;20058;-63
2023/09/30 01:19:24;;;;;;;15.93;7.57;;;;;;;12.90;100.00;102413.03;5098603;28;20564;-63
2023/09/30 01:21:58;;;;;;;16.73;15.10;;;;;;;12.58;100.00;102412.72;5096127;28;20035;-62
2023/09/30 01:24:24;;;;;;;15.38;13.75;;;;;;;12.63;100.00;102415.19;5098759;28;20032;-62
2023/09/30 01:26:50;;;;;;;16.67;14.32;;;;;;;12.51;100.00;102427.31;5091438;28;20024;-62
2023/09/30 01:29:17;;;;;;;16.15;13.82;;;;;;;12.58;100.00;102438.56;5105206;28;20093;-63
2023/09/30 01:31:42;;;;;;;15.70;14.00;;;;;;;12.55;100.00;102428.03;5106110;27;20089;-63
2023/09/30 01:34:10;;;;;;;10.93;7.57;;;;;;;12.75;100.00;102435.13;5101185;28;20043;-62
2023/09/30 01:36:36;;;;;;;16.05;14.23;;;;;;;12.56;100.00;102433.31;5091057;28;20035;-62
2023/09/30 01:39:04;;;;;;;15.77;14.23;;;;;;;12.46;100.00;102418.63;5101717;28;20016;-63
2023/09/30 01:41:29;;;;;;;17.15;15.23;;;;;;;12.51;100.00;102424.63;5100447;28;20025;-63
2023/09/30 01:43:54;;;;;;;10.00;7.28;;;;;;;12.64;100.00;102414.25;5104618;28;20020;-63
2023/09/30 01:46:20;;;;;;;16.08;14.38;;;;;;;12.50;100.00;102413.09;5108263;28;20452;-63
2023/09/30 01:48:45;;;;;;;16.25;14.48;;;;;;;12.38;100.00;102400.31;5094583;28;20024;-62
2023/09/30 01:51:11;;;;;;;16.08;14.50;;;;;;;12.38;100.00;102399.44;5104418;28;20019;-63
2023/09/30 01:53:39;;;;;;;18.80;15.18;;;;;;;12.37;100.00;102405.72;5105356;28;20049;-63
2023/09/30 01:56:05;;;;;;;16.77;15.18;;;;;;;12.24;100.00;102400.94;5102589;28;20044;-63
2023/09/30 01:58:30;;;;;;;16.95;14.85;;;;;;;12.30;100.00;102404.28;5108315;28;20386;-62
2023/09/30 02:01:03;;;;;;;17.88;15.15;;;;;;;12.31;100.00;102422.88;5099104;28;20027;-63
2023/09/30 02:03:31;;;;;;;15.43;13.93;;;;;;;12.28;100.00;102415.88;5097267;28;20501;-62
2023/09/30 02:05:59;;;;;;;17.75;15.90;;;;;;;12.33;100.00;102415.66;5101897;28;20032;-63
2023/09/30 02:08:25;;;;;;;19.13;16.52;;;;;;;12.30;100.00;102413.16;5105621;28;20023;-62
2023/09/30 02:10:53;;;;;;;19.17;15.73;;;;;;;12.36;100.00;102420.88;5103815;28;20039;-63
2023/09/30 02:13:19;;;;;;;16.90;15.18;;;;;;;12.37;100.00;102424.41;5092657;28;20035;-63
2023/09/30 02:15:44;;;;;;;20.23;15.15;;;;;;;12.23;100.00;102414.34;5091631;28;20036;-63
2023/09/30 02:18:10;;;;;;;18.95;15.85;;;;;;;12.31;100.00;102422.88;5091802;28;20028;-62
2023/09/30 02:20:39;;;;;;;17.85;14.98;;;;;;;12.30;100.00;102429.16;5095950;28;20543;-63
2023/09/30 02:23:05;;;;;;;18.08;14.65;;;;;;;12.33;100.00;102436.16;5102113;28;20032;-62
2023/09/30 02:25:31;;;;;;;16.35;14.93;;;;;;;12.31;100.00;102425.53;5104420;28;20043;-63
2023/09/30 02:27:57;;;;;;;18.10;15.40;;;;;;;12.21;100.00;102413.56;5109869;28;20420;-63
2023/09/30 02:30:23;;;;;;;14.00;7.43;;;;;;;12.44;100.00;102415.16;5097852;28;20126;-63
2023/09/30 02:32:49;;;;;;;18.70;16.70;;;;;;;12.20;100.00;102404.66;5090510;28;20518;-62
2023/09/30 02:35:15;;;;;;;17.67;15.85;;;;;;;12.26;100.00;102411.53;5099545;28;20076;-63
2023/09/30 02:37:43;;;;;;;20.67;17.17;;;;;;;12.15;100.00;102413.84;5092871;28;20032;-63
2023/09/30 02:40:11;;;;;;;10.25;6.93;;;;;;;12.32;100.00;102418.41;5097879;28;20032;-63
2023/09/30 02:42:40;;;;;;;19.98;17.60;;;;;;;12.16;100.00;102424.41;5099451;28;20100;-62
2023/09/30 02:45:07;;;;;;;17.02;8.07;;;;;;;12.27;100.00;102410.63;5101137;28;20036;-62
2023/09/30 02:47:34;;;;;;;19.05;17.15;;;;;;;12.12;100.00;102403.28;5104028;28;20208;-63
2023/09/30 02:50:00;;;;;;;18.70;15.63;;;;;;;12.13;100.00;102397.88;5091954;28;20028;-62
2023/09/30 02:52:25;;;;;;;13.52;9.50;;;;;;;12.27;100.00;102405.28;5092046;28;20088;-63
2023/09/30 02:54:53;;;;;;;22.95;17.55;;;;;;;12.11;100.00;102406.88;5103512;28;20462;-63
2023/09/30 02:57:19;;;;;;;18.35;16.42;;;;;;;12.15;100.00;102413.84;5095024;28;20020;-62
2023/09/30 02:59:44;;;;;;;20.17;17.25;;;;;;;12.11;100.00;102409.56;5095822;28;20076;-62
2023/09/30 03:02:15;;;;;;;17.88;16.05;;;;;;;12.03;100.00;102410.78;5109259;28;20467;-63
2023/09/30 03:04:42;;;;;;;18.02;16.20;;;;;;;12.09;100.00;102409.63;5102687;28;20054;-63
2023/09/30 03:07:10;;;;;;;18.80;16.88;;;;;;;12.06;100.00;102428.44;5095510;28;20028;-63
2023/09/30 03:09:35;;;;;;;13.38;8.32;;;;;;;12.19;100.00;102418.09;5109244;28;20057;-63
2023/09/30 03:12:02;;;;;;;19.55;17.30;;;;;;;12.03;100.00;102421.44;5113613;28;20118;-63
2023/09/30 03:14:30;;;;;;;19.27;17.27;;;;;;;11.97;100.00;102419.03;5112207;28;20589;-63
2023/09/30 03:16:56;;;;;;;20.52;18.05;;;;;;;11.97;100.00;102421.72;5095202;28;20024;-63
2023/09/30 03:19:22;;;;;;;21.55;18.42;;;;;;;11.92;100.00;102414.84;5096702;28;20016;-62
2023/09/30 03:21:47;;;;;;;20.98;18.77;;;;;;;11.94;100.00;102418.28;5094136;28;20383;-63
2023/09/30 03:24:15;;;;;;;23.08;19.35;;;;;;;12.02;100.00;102402.81;5108240;28;20044;-63
2023/09/30 03:26:44;;;;;;;22.02;18.45;;;;;;;12.03;100.00;102405.44;5112193;28;20428;-63
2023/09/30 03:29:09;;;;;;;14.38;8.43;;;;;;;12.15;100.00;102396.03;5102602;28;20135;-63
2023/09/30 03:31:36;;;;;;;19.02;17.00;;;;;;;11.97;100.00;102389.72;5113393;27;20047;-63
2023/09/30 03:34:03;;;;;;;19.13;17.13;;;;;;;12.08;100.00;102394.56;5108174;28;20023;-63
2023/09/30 03:36:30;;;;;;;13.60;8.38;;;;;;;12.18;100.00;102398.56;5112672;28;20015;-63
2023/09/30 03:38:59;;;;;;;20.75;17.73;;;;;;;12.07;100.00;102398.16;5098406;28;20434;-63
2023/09/30 03:41:24;;;;;;;13.93;8.65;;;;;;;12.13;100.00;102381.88;5095423;28;20020;-63
2023/09/30 03:43:49;;;;;;;20.65;18.58;;;;;;;12.02;100.00;102398.34;5097250;28;20454;-63
2023/09/30 03:46:15;;;;;;;16.83;8.63;;;;;;;12.16;100.00;102399.56;5103989;28;20034;-63
2023/09/30 03:48:42;;;;;;;12.23;7.95;;;;;;;12.12;100.00;102404.16;5086587;28;20427;-63
2023/09/30 03:51:13;;;;;;;20.63;17.73;;;;;;;11.98;100.00;102419.91;5107841;28;20024;-63
2023/09/30 03:53:40;;;;;;;20.08;18.08;;;;;;;11.98;100.00;102411.91;5109292;28;20031;-63
2023/09/30 03:56:06;;;;;;;19.52;17.55;;;;;;;11.88;100.00;102387.44;5093235;28;20440;-63
2023/09/30 03:58:32;;;;;;;16.35;9.15;;;;;;;12.13;100.00;102402.38;5103510;28;20034;-63
2023/09/30 04:00:58;;;;;;;19.90;17.85;;;;;;;11.91;100.00;102391.75;5099492;28;20398;-62
2023/09/30 04:03:23;;;;;;;21.92;17.80;;;;;;;11.93;100.00;102393.44;5107735;28;20023;-63
2023/09/30 04:05:50;;;;;;;13.45;9.05;;;;;;;12.05;100.00;102400.03;5105529;28;20023;-63
2023/09/30 04:08:17;;;;;;;18.85;16.95;;;;;;;11.96;100.00;102403.97;5106247;28;20545;-63
2023/09/30 04:10:44;;;;;;;20.45;18.42;;;;;;;11.95;100.00;102401.38;5102651;28;20502;-63
2023/09/30 04:13:11;;;;;;;20.70;17.92;;;;;;;11.91;100.00;102397.09;5094085;28;20046;-63
2023/09/30 04:15:37;;;;;;;23.08;10.50;;;;;;;12.05;100.00;102400.03;5111668;28;20026;-63
2023/09/30 04:18:05;;;;;;;13.90;8.68;;;;;;;11.99;100.00;102393.16;5109015;28;20026;-63
2023/09/30 04:20:30;;;;;;;16.60;9.85;;;;;;;11.99;100.00;102401.16;5103802;28;20023;-63
2023/09/30 04:22:57;;;;;;;14.82;9.32;;;;;;;12.02;100.00;102398.34;5111670;28;20076;-63
2023/09/30 04:25:24;;;;;;;22.05;17.58;;;;;;;11.92;100.00;102405.03;5109493;28;20408;-63
2023/09/30 04:27:50;;;;;;;21.75;17.75;;;;;;;11.85;100.00;102400.88;5093900;28;20479;-63
2023/09/30 04:30:18;;;;;;;20.67;18.40;;;;;;;11.85;100.00;102400.88;5103293;28;20042;-63
2023/09/30 04:32:43;;;;;;;12.73;8.70;;;;;;;11.98;100.00;102396.78;5110436;28;20047;-63
2023/09/30 04:35:09;;;;;;;19.05;17.17;;;;;;;11.76;100.00;102402.13;5096840;28;20069;-63
2023/09/30 04:37:38;;;;;;;13.07;9.25;;;;;;;11.95;100.00;102402.25;5094408;28;20035;-63
2023/09/30 04:40:15;;;;;;;21.35;18.10;;;;;;;11.77;100.00;102408.34;5095553;28;20364;-63
2023/09/30 04:42:42;;;;;;;24.27;18.80;;;;;;;11.82;100.00;102406.31;5095147;28;20031;-63
2023/09/30 04:45:10;;;;;;;20.25;17.33;;;;;;;11.75;100.00;102415.53;5105008;28;20693;-63
2023/09/30 04:47:35;;;;;;;20.77;18.27;;;;;;;11.68;100.00;102406.94;5093156;28;20020;-63
2023/09/30 04:50:04;;;;;;;11.55;7.97;;;;;;;11.86;100.00;102407.13;5101009;28;20028;-63
2023/09/30 04:52:32;;;;;;;20.55;18.52;;;;;;;11.71;100.00;102406.81;5109979;28;20423;-63
2023/09/30 04:54:59;;;;;;;13.05;9.40;;;;;;;11.86;100.00;102410.66;5104976;28;20024;-63
2023/09/30 04:57:26;;;;;;;20.75;18.50;;;;;;;11.65;100.00;102414.16;5096479;28;20124;-63
2023/09/30 04:59:51;;;;;;;21.63;19.25;;;;;;;11.69;100.00;102422.00;5102550;28;20034;-63
2023/09/30 05:02:21;;;;;;;14.02;8.93;;;;;;;11.83;100.00;102429.41;5091894;28;20425;-63
2023/09/30 05:04:47;;;;;;;13.43;8.77;;;;;;;11.79;100.00;102422.44;5107235;28;20066;-63
2023/09/30 05:07:13;;;;;;;20.35;17.02;;;;;;;11.63;100.00;102430.25;5098113;28;20068;-63
2023/09/30 05:09:39;;;;;;;20.65;18.60;;;;;;;11.62;100.00;102424.97;5099224;28;20048;-63
2023/09/30 05:12:04;;;;;;;20.30;17.77;;;;;;;11.63;100.00;102432.03;5091438;28;20035;-63
2023/09/30 05:14:30;;;;;;;20.63;18.42;;;;;;;11.63;100.00;102430.25;5097150;28;20031;-63
2023/09/30 05:16:56;;;;;;;20.00;17.95;;;;;;;11.67;100.00;102431.84;5095004;28;20073;-63
2023/09/30 05:19:22;;;;;;;22.63;18.50;;;;;;;11.52;100.00;102441.34;5094395;28;20085;-63
2023/09/30 05:21:47;;;;;;;19.85;17.90;;;;;;;11.57;100.00;102434.03;5094438;28;20020;-63
2023/09/30 05:24:13;;;;;;;20.88;18.63;;;;;;;11.49;100.00;102429.94;5092090;28;20391;-63
2023/09/30 05:26:38;;;;;;;21.15;17.55;;;;;;;11.42;100.00;102426.69;5104874;28;20547;-63
2023/09/30 05:29:04;;;;;;;19.10;17.13;;;;;;;11.47;100.00;102442.47;5108651;28;20031;-63
2023/09/30 05:31:30;;;;;;;20.27;18.02;;;;;;;11.51;100.00;102449.41;5096695;28;20028;-63
2023/09/30 05:33:56;;;;;;;22.33;19.45;;;;;;;11.46;100.00;102433.59;5093414;28;20032;-63
2023/09/30 05:36:21;;;;;;;12.95;8.48;;;;;;;11.66;100.00;102446.09;5103156;28;20028;-63
2023/09/30 05:38:49;;;;;;;15.10;9.20;;;;;;;11.66;100.00;102443.44;5101197;28;20047;-63
2023/09/30 05:41:15;;;;;;;20.30;17.88;;;;;;;11.55;100.00;102435.88;5083920;28;20028;-63
2023/09/30 05:43:43;;;;;;;20.58;18.45;;;;;;;11.53;100.00;102445.75;5108197;28;20051;-63
2023/09/30 05:46:08;;;;;;;22.58;18.75;;;;;;;11.48;100.00;102447.75;5102183;28;20024;-63
2023/09/30 05:48:38;;;;;;;21.50;18.92;;;;;;;11.43;100.00;102457.72;5090668;28;20074;-63
2023/09/30 05:51:04;;;;;;;23.05;18.65;;;;;;;11.43;100.00;102449.72;5099633;28;20024;-63
2023/09/30 05:53:32;;;;;;;22.05;19.27;;;;;;;11.49;100.00;102443.28;5093196;28;20048;-63
2023/09/30 05:55:59;;;;;;;21.13;18.92;;;;;;;11.64;100.00;102447.09;5097292;28;20122;-63
2023/09/30 05:58:26;;;;;;;22.45;20.05;;;;;;;11.53;100.00;102445.75;5121874;27;20027;-63
2023/09/30 06:00:53;;;;;;;24.13;18.98;;;;;;;11.55;100.00;102464.34;5094465;28;20043;-63
2023/09/30 06:03:18;;;;;;;21.38;19.10;;;;;;;11.54;100.00;102462.59;5093221;27;20028;-63
2023/09/30 06:05:43;;;;;;;24.10;19.90;;;;;;;11.56;100.00;102458.97;5098573;28;20531;-63
2023/09/30 06:08:15;;;;;;;23.88;20.35;;;;;;;11.60;100.00;102457.88;5095391;28;20020;-63
2023/09/30 06:10:43;;;;;;;27.10;20.63;;;;;;;11.61;100.00;102458.75;5102666;28;20038;-63
2023/09/30 06:13:13;;;;;;;22.45;19.42;;;;;;;11.59;100.00;102447.31;5093123;28;20350;-63
2023/09/30 06:15:40;;;;;;;25.23;19.50;;;;;;;11.64;100.00;102460.41;5091108;28;20085;-63
2023/09/30 06:18:06;;;;;;;25.80;19.45;;;;;;;11.76;100.00;102457.22;5094180;28;20220;-63
2023/09/30 06:20:33;;;;;;;25.05;19.10;;;;;;;11.64;100.00;102447.09;5095254;28;20066;-63
2023/09/30 06:23:00;;;;;;;22.65;20.30;;;;;;;11.65;100.00;102451.47;5107160;28;20035;-63
2023/09/30 06:25:27;;;;;;;26.73;19.60;;;;;;;11.75;100.00;102445.72;5108783;28;20082;-63
2023/09/30 06:27:54;;;;;;;23.60;19.35;;;;;;;11.72;100.00;102456.50;5098334;28;20031;-63
2023/09/30 06:30:20;;;;;;;24.75;20.13;;;;;;;11.76;100.00;102449.25;5105020;28;20054;-63
2023/09/30 06:32:47;;;;;;;23.55;19.92;;;;;;;11.73;100.00;102441.38;5107873;28;20020;-63
2023/09/30 06:35:12;;;;;;;24.67;19.67;;;;;;;11.80;100.00;102446.41;5108191;28;20493;-63
2023/09/30 06:37:39;;;;;;;25.10;21.13;;;;;;;11.77;100.00;102441.19;5103610;28;20027;-63
2023/09/30 06:40:09;;;;;;;25.00;19.48;;;;;;;11.92;100.00;102445.03;5090446;28;20028;-63
2023/09/30 06:42:39;;;;;;;28.40;20.40;;;;;;;11.95;100.00;102452.03;5131529;27;20020;-63
2023/09/30 06:45:06;;;;;;;24.95;19.77;;;;;;;11.93;100.00;102459.22;5096460;28;20100;-63
2023/09/30 06:47:37;;;;;;;25.30;19.35;;;;;;;11.96;100.00;102454.63;5099403;28;20016;-63
2023/09/30 06:50:07;;;;;;;26.77;21.63;;;;;;;12.02;100.00;102461.50;5097853;28;20032;-63
2023/09/30 06:52:38;;;;;;;25.75;20.60;;;;;;;12.08;100.00;102465.69;5137299;27;20461;-63
2023/09/30 06:55:05;;;;;;;27.55;20.75;;;;;;;12.14;100.00;102465.44;5104356;28;20024;-63
2023/09/30 06:57:35;;;;;;;27.63;20.75;;;;;;;12.16;100.00;102482.25;5093927;28;20035;-63
2023/09/30 07:00:01;;;;;;;16.00;8.25;;;;;;;12.23;100.00;102478.34;5079094;28;20016;-63
2023/09/30 07:02:27;;;;;;;31.30;21.42;;;;;;;12.24;100.00;102493.44;5094283;28;20026;-63
2023/09/30 07:04:53;;;;;;;31.73;20.90;;;;;;;12.33;100.00;102494.84;5082901;28;20011;-63
2023/09/30 07:07:18;;;;;;;32.70;20.90;;;;;;;12.31;100.00;102499.38;5093654;28;20020;-63
2023/09/30 07:09:46;;;;;;;16.98;8.02;;;;;;;12.47;100.00;102503.09;5095913;28;20031;-64
2023/09/30 07:12:12;;;;;;;25.15;19.35;;;;;;;12.46;100.00;102507.56;5095100;28;20026;-63
2023/09/30 07:14:37;;;;;;;14.93;8.98;;;;;;;12.56;100.00;102509.81;5097944;28;20016;-63
2023/09/30 07:17:05;;;;;;;24.00;20.02;;;;;;;12.63;100.00;102509.50;5113067;28;20016;-63
2023/09/30 07:19:31;;;;;;;27.35;19.02;;;;;;;12.61;100.00;102507.81;5096783;28;20023;-63
2023/09/30 07:21:56;;;;;;;32.35;20.90;;;;;;;12.61;100.00;102507.81;5095432;28;20046;-63
2023/09/30 07:24:22;;;;;;;18.65;8.30;;;;;;;12.71;100.00;102518.03;5093435;28;20482;-63
2023/09/30 07:26:50;;;;;;;27.30;19.85;;;;;;;12.71;100.00;102525.16;5092744;28;20048;-63
2023/09/30 07:29:15;;;;;;;28.38;20.05;;;;;;;12.72;100.00;102530.44;5096696;28;20038;-64
2023/09/30 07:31:40;;;;;;;27.60;20.17;;;;;;;12.84;100.00;102547.69;5099094;28;20016;-64
2023/09/30 07:34:06;;;;;;;27.70;19.40;;;;;;;12.91;100.00;102550.94;5084175;28;20487;-63
2023/09/30 07:36:31;;;;;;;31.40;19.67;;;;;;;12.93;100.00;102555.28;5107731;28;20054;-63
2023/09/30 07:38:57;;;;;;;30.55;20.27;;;;;;;12.98;100.00;102556.91;5096815;28;20390;-63
2023/09/30 07:41:22;;;;;;;27.60;19.45;;;;;;;12.98;100.00;102555.09;5128374;27;20020;-63
2023/09/30 07:43:48;;;;;;;24.73;8.30;;;;;;;13.13;100.00;102559.72;5095549;28;20027;-63
2023/09/30 07:46:15;;;;;;;32.55;18.05;;;;;;;13.18;100.00;102555.03;5100363;28;20422;-63
2023/09/30 07:48:41;;;;;;;30.27;19.88;;;;;;;13.33;100.00;102547.28;5097864;28;20028;-63
2023/09/30 07:51:09;;;;;;;30.42;19.10;;;;;;;13.45;100.00;102546.69;5098003;28;20031;-63
2023/09/30 07:53:35;;;;;;;18.83;10.50;;;;;;;13.58;100.00;102546.94;5093474;28;20032;-63
2023/09/30 07:56:00;;;;;;;30.25;18.20;;;;;;;13.66;100.00;102546.59;5111945;28;20348;-63
2023/09/30 07:58:25;;;;;;;27.63;18.42;;;;;;;13.80;100.00;102547.66;5109910;28;20029;-63
2023/09/30 08:00:51;;;;;;;29.48;17.55;;;;;;;13.89;100.00;102542.78;5105716;28;20112;-63
2023/09/30 08:03:16;;;;;;;29.27;17.88;;;;;;;13.94;100.00;102559.44;5105864;28;20024;-63
2023/09/30 08:05:42;;;;;;;33.15;19.20;;;;;;;14.11;100.00;102554.13;5106040;28;20028;-63
2023/09/30 08:08:12;;;;;;;25.83;16.13;;;;;;;14.16;100.00;102551.22;5101866;28;20437;-63
2023/09/30 08:10:37;;;;;;;26.20;16.02;;;;;;;14.28;100.00;102537.22;5095635;28;20055;-63
2023/09/30 08:13:03;;;;;;;24.73;16.33;;;;;;;14.45;100.00;102549.72;5096990;28;20482;-63
2023/09/30 08:15:30;;;;;;;27.10;16.75;;;;;;;14.47;100.00;102539.78;5111512;28;20023;-64
2023/09/30 08:17:55;;;;;;;26.73;16.98;;;;;;;14.57;100.00;102535.72;5096301;28;20213;-63
2023/09/30 08:20:23;;;;;;;29.60;16.67;;;;;;;14.70;100.00;102539.47;5096926;28;20550;-63
2023/09/30 08:22:48;;;;;;;15.77;8.20;;;;;;;14.88;100.00;102542.09;5096823;28;20131;-63
2023/09/30 08:25:16;;;;;;;30.23;16.30;;;;;;;14.99;100.00;102534.38;5094006;28;20123;-62
2023/09/30 08:27:42;;;;;;;27.75;15.10;;;;;;;15.12;100.00;102534.56;5097172;28;20031;-63
2023/09/30 08:30:08;;;;;;;24.55;15.20;;;;;;;15.07;100.00;102537.50;5100611;27;20497;-63
2023/09/30 08:32:34;;;;;;;24.80;14.77;;;;;;;15.07;100.00;102533.94;5100003;28;20725;-63
2023/09/30 08:35:01;;;;;;;25.90;15.68;;;;;;;15.24;100.00;102536.56;5103287;28;20024;-63
2023/09/30 08:37:27;;;;;;;26.48;15.27;;;;;;;15.20;100.00;102535.00;5093767;28;20044;-63
2023/09/30 08:39:52;;;;;;;27.17;16.80;;;;;;;15.13;100.00;102529.13;5094102;28;20035;-63
2023/09/30 08:42:22;;;;;;;19.48;14.73;;;;;;;15.15;100.00;102529.03;5095942;28;20028;-63
2023/09/30 08:44:48;;;;;;;27.65;14.40;;;;;;;15.16;100.00;102520.91;5093903;28;20024;-63
2023/09/30 08:47:14;;;;;;;28.40;15.80;;;;;;;15.17;100.00;102524.44;5096204;28;20024;-63
2023/09/30 08:49:43;;;;;;;26.10;15.38;;;;;;;15.20;100.00;102521.59;5095965;28;20402;-63
2023/09/30 08:52:12;;;;;;;25.50;14.98;;;;;;;15.25;100.00;102521.34;5091780;28;20020;-63
2023/09/30 08:54:40;;;;;;;26.48;14.27;;;;;;;15.32;100.00;102525.41;5090268;28;20467;-63
2023/09/30 08:57:09;;;;;;;24.67;14.57;;;;;;;15.35;100.00;102518.06;5097847;28;20437;-63
2023/09/30 08:59:36;;;;;;;25.42;14.40;;;;;;;15.46;100.00;102512.06;5094782;28;20024;-63
2023/09/30 09:02:01;;;;;;;21.77;13.70;;;;;;;15.55;100.00;102522.28;5089379;28;20037;-63
2023/09/30 09:04:27;;;;;;;22.83;13.23;;;;;;;15.59;100.00;102523.00;5090254;28;20128;-63
2023/09/30 09:06:55;;;;;;;21.63;12.65;;;;;;;15.67;100.00;102523.38;5093217;28;20043;-63
2023/09/30 09:09:22;;;;;;;26.10;13.43;;;;;;;15.79;99.23;102537.94;5092499;28;20081;-63
2023/09/30 09:11:50;;;;;;;25.55;13.20;;;;;;;15.81;99.60;102546.78;5104562;28;20503;-63
2023/09/30 09:14:16;;;;;;;20.75;12.73;;;;;;;15.95;98.46;102554.91;5111788;28;20024;-63
2023/09/30 09:16:55;;;;;;;22.88;12.75;;;;;;;16.09;98.44;102552.28;5112387;28;20543;-63
2023/09/30 09:19:21;;;;;;;23.42;11.80;;;;;;;16.26;98.48;102553.06;5111857;28;20419;-63
2023/09/30 09:21:58;;;;;;;20.25;12.40;;;;;;;16.36;96.44;102546.22;5105409;28;20097;-63
2023/09/30 09:24:28;;;;;;;17.95;11.30;;;;;;;16.41;93.96;102549.47;5091735;28;20043;-63
2023/09/30 09:27:04;;;;;;;21.40;11.18;;;;;;;16.51;94.11;102564.06;5092444;28;20040;-63
2023/09/30 09:29:30;;;;;;;19.67;11.85;;;;;;;16.61;92.60;102566.19;5092494;28;20428;-63
2023/09/30 09:32:08;;;;;;;20.55;10.93;;;;;;;16.64;91.48;102574.91;5105762;28;20031;-63
2023/09/30 09:34:33;;;;;;;20.00;11.63;;;;;;;16.63;89.38;102575.03;5112358;28;20106;-63
2023/09/30 09:36:59;;;;;;;16.92;10.93;;;;;;;16.69;88.52;102591.63;5113276;28;20106;-63
2023/09/30 09:39:31;;;;;;;16.15;10.68;;;;;;;16.67;87.58;102585.47;5112170;28;20094;-63
2023/09/30 09:42:01;;;;;;;20.42;11.07;;;;;;;16.72;87.08;102590.59;5108826;28;20118;-63
2023/09/30 09:44:26;;;;;;;16.88;11.23;;;;;;;16.82;86.42;102583.72;5112521;28;20036;-63
2023/09/30 09:46:52;;;;;;;18.92;10.43;;;;;;;16.85;87.43;102594.28;5112891;28;20508;-63
2023/09/30 09:49:18;;;;;;;16.08;9.95;;;;;;;16.96;86.83;102583.72;5091662;28;20555;-63
2023/09/30 09:51:45;;;;;;;15.52;9.73;;;;;;;17.19;86.46;102593.03;5106768;28;20046;-63
2023/09/30 09:54:11;;;;;;;17.55;10.77;;;;;;;17.22;85.45;102590.16;5112263;28;20061;-63
2023/09/30 09:56:39;;;;;;;17.55;10.02;;;;;;;17.29;83.91;102587.94;5112389;28;20020;-63
2023/09/30 09:59:06;;;;;;;13.82;9.80;;;;;;;17.38;83.31;102591.84;5112588;28;20032;-63
2023/09/30 10:01:34;;;;;;;15.85;10.70;;;;;;;17.45;81.78;102590.53;5109859;28;20016;-63
2023/09/30 10:04:02;;;;;;;20.70;11.10;;;;;;;17.70;81.96;102585.25;5112149;28;20031;-63
2023/09/30 10:06:28;;;;;;;13.83;9.97;;;;;;;17.80;80.43;102590.09;5112581;28;20466;-63
2023/09/30 10:08:57;;;;;;;15.68;10.98;;;;;;;18.07;79.19;102601.72;5110704;28;20019;-63
2023/09/30 10:11:23;;;;;;;14.57;9.70;;;;;;;18.16;79.32;102605.63;5098237;28;20051;-63
2023/09/30 10:13:52;;;;;;;17.48;10.43;;;;;;;18.24;78.73;102607.81;5091898;28;20031;-63
2023/09/30 10:16:36;;;;;;;18.17;10.02;;;;;;;18.51;80.68;102610.47;5091642;28;20023;-63
2023/09/30 10:19:12;;;;;;;14.73;9.55;;;;;;;18.74;77.05;102615.16;5091783;28;20039;-63
2023/09/30 10:21:38;;;;;;;17.52;9.60;;;;;;;18.71;75.78;102609.94;5093034;28;20550;-63
2023/09/30 10:24:25;;;;;;;13.85;8.98;;;;;;;19.06;76.30;102612.03;5091295;28;20115;-63
2023/09/30 10:27:20;;;;;;;11.52;7.40;;;;;;;19.23;73.84;102606.28;5089680;28;21426;-63
2023/09/30 10:29:46;;;;;;;15.55;8.30;;;;;;;19.00;72.07;102594.44;5091487;28;20047;-63
2023/09/30 10:32:11;;;;;;;13.88;7.80;;;;;;;19.08;72.07;102580.41;5092174;28;20028;-63
2023/09/30 10:34:47;;;;;;;11.98;7.60;;;;;;;19.20;73.80;102584.06;5091376;28;20024;-63
2023/09/30 10:37:23;;;;;;;12.40;8.07;;;;;;;19.54;71.85;102587.00;5091795;28;20024;-63
2023/09/30 10:40:03;;;;;;;13.32;7.88;;;;;;;19.60;70.57;102586.56;5091148;28;20016;-63
2023/09/30 10:42:45;;;;;;;14.15;8.52;;;;;;;19.92;70.39;102586.91;5092651;28;20031;-63
2023/09/30 10:45:48;;;;;;;13.50;8.10;;;;;;;20.15;68.39;102574.38;5091416;28;20028;-63
2023/09/30 10:48:32;;;;;;;12.55;7.00;;;;;;;20.47;67.25;102576.41;5091466;28;20024;-63
2023/09/30 10:51:00;;;;;;;13.98;6.95;;;;;;;20.52;65.20;102569.69;5138046;27;20026;-63
2023/09/30 10:53:30;;;;;;;11.32;7.15;;;;;;;20.71;63.46;102562.88;5109665;28;20035;-63
2023/09/30 10:56:00;;;;;;;10.00;6.68;;;;;;;20.84;62.78;102564.47;5110524;28;20530;-63
2023/09/30 10:58:48;;;;;;;11.88;7.07;;;;;;;21.52;63.36;102554.47;5111938;28;20548;-63
2023/09/30 11:01:16;;;;;;;12.50;6.60;;;;;;;21.59;60.86;102549.44;5110200;28;20390;-63
2023/09/30 11:03:42;;;;;;;13.00;7.93;;;;;;;21.72;58.72;102555.53;5110466;28;20425;-63
2023/09/30 11:06:12;;;;;;;13.50;6.68;;;;;;;21.98;56.17;102545.22;5111941;28;20035;-63